createdAt,value
2022-11-04T00:01:38.168Z,99.90
2022-11-04T00:04:26.012Z,99.90
2022-11-04T00:07:31.620Z,99.90
2022-11-04T00:10:17.227Z,96.40
2022-11-04T00:13:02.627Z,93.40
2022-11-04T00:16:06.702Z,92.20
2022-11-04T00:18:52.211Z,93.30
2022-11-04T00:21:56.352Z,88.40
2022-11-04T00:25:00.234Z,91.30
2022-11-04T00:28:04.047Z,88.80
2022-11-04T00:30:52.626Z,88.90
2022-11-04T00:33:37.959Z,90.60
2022-11-04T00:36:25.478Z,88.10
2022-11-04T00:39:10.987Z,89.10
2022-11-04T00:41:56.691Z,88.80
2022-11-04T00:44:42.242Z,90.00
2022-11-04T00:47:28.311Z,91.80
2022-11-04T00:50:13.913Z,94.00
2022-11-04T00:53:00.576Z,92.30
2022-11-04T00:55:46.146Z,94.70
2022-11-04T00:58:32.072Z,94.80
2022-11-04T01:01:18.613Z,99.90
2022-11-04T01:04:04.182Z,99.80
2022-11-04T01:06:49.714Z,98.30
2022-11-04T01:09:35.130Z,97.20
2022-11-04T01:12:20.317Z,96.80
2022-11-04T01:15:06.295Z,98.50
2022-11-04T01:17:51.852Z,99.90
2022-11-04T01:20:37.160Z,99.90
2022-11-04T01:23:22.684Z,97.70
2022-11-04T01:26:14.697Z,99.90
2022-11-04T01:29:00.365Z,99.30
2022-11-04T01:31:45.708Z,99.90
2022-11-04T01:34:31.235Z,99.90
2022-11-04T01:37:16.758Z,99.90
2022-11-04T01:40:02.098Z,99.90
2022-11-04T01:42:47.378Z,99.90
2022-11-04T01:45:33.253Z,99.90
2022-11-04T01:48:26.330Z,99.90
2022-11-04T01:51:12.940Z,99.90
2022-11-04T01:53:58.503Z,99.90
2022-11-04T01:56:47.380Z,99.90
2022-11-04T01:59:37.021Z,99.10
2022-11-04T02:02:22.898Z,99.90
2022-11-04T02:05:08.642Z,99.90
2022-11-04T02:07:55.933Z,99.90
2022-11-04T02:10:47.626Z,99.90
2022-11-04T02:13:35.644Z,99.90
2022-11-04T02:16:43.088Z,99.90
2022-11-04T02:19:47.345Z,99.90
2022-11-04T02:22:57.057Z,99.90
2022-11-04T02:25:42.326Z,99.90
2022-11-04T02:29:10.720Z,99.90
2022-11-04T02:32:06.823Z,99.90
2022-11-04T02:34:58.030Z,99.90
2022-11-04T02:38:01.163Z,99.90
2022-11-04T02:40:55.232Z,99.90
2022-11-04T02:44:05.302Z,99.90
2022-11-04T02:47:00.115Z,99.90
2022-11-04T02:49:47.809Z,99.90
2022-11-04T02:53:10.667Z,99.90
2022-11-04T02:55:58.857Z,99.90
2022-11-04T02:58:52.014Z,99.90
2022-11-04T03:01:40.735Z,99.90
2022-11-04T03:04:31.476Z,99.90
2022-11-04T03:07:24.304Z,99.90
2022-11-04T03:10:27.599Z,99.90
2022-11-04T03:13:15.048Z,99.90
2022-11-04T03:16:09.248Z,99.90
2022-11-04T03:19:08.666Z,99.90
2022-11-04T03:22:11.686Z,99.90
2022-11-04T03:24:57.854Z,99.90
2022-11-04T03:27:52.174Z,99.90
2022-11-04T03:30:39.782Z,99.90
2022-11-04T03:33:38.053Z,99.90
2022-11-04T03:36:24.227Z,99.90
2022-11-04T03:39:09.769Z,99.90
2022-11-04T03:42:03.001Z,99.90
2022-11-04T03:44:55.787Z,99.90
2022-11-04T03:47:41.768Z,99.90
2022-11-04T03:50:42.614Z,99.90
2022-11-04T03:53:29.295Z,99.90
2022-11-04T03:56:33.147Z,99.90
2022-11-04T03:59:56.817Z,99.90
2022-11-04T04:03:02.169Z,99.90
2022-11-04T04:05:58.120Z,99.90
2022-11-04T04:08:43.651Z,99.90
2022-11-04T04:11:50.836Z,99.90
2022-11-04T04:14:41.444Z,99.90
2022-11-04T04:17:52.629Z,99.90
2022-11-04T04:20:39.743Z,99.90
2022-11-04T04:23:47.794Z,99.90
2022-11-04T04:26:54.394Z,99.90
2022-11-04T04:29:40.555Z,99.90
2022-11-04T04:32:29.254Z,99.90
2022-11-04T04:35:34.027Z,99.90
2022-11-04T04:38:50.045Z,99.90
2022-11-04T04:41:54.042Z,97.40
2022-11-04T04:45:00.841Z,99.20
2022-11-04T04:47:46.863Z,97.10
2022-11-04T04:50:37.333Z,99.40
2022-11-04T04:53:23.427Z,99.30
2022-11-04T04:56:08.740Z,99.90
2022-11-04T04:58:54.119Z,99.90
2022-11-04T05:01:39.586Z,99.90
2022-11-04T05:04:25.112Z,99.90
2022-11-04T05:07:10.762Z,99.90
2022-11-04T05:09:56.348Z,99.90
2022-11-04T05:13:00.177Z,99.90
2022-11-04T05:15:45.567Z,99.90
2022-11-04T05:18:30.966Z,99.90
2022-11-04T05:21:16.580Z,99.90
2022-11-04T05:24:01.848Z,99.90
2022-11-04T05:26:47.532Z,99.90
2022-11-04T05:29:32.980Z,99.90
2022-11-04T05:32:18.274Z,99.90
2022-11-04T05:35:03.979Z,99.90
2022-11-04T05:37:49.448Z,99.90
2022-11-04T05:40:34.541Z,99.90
2022-11-04T05:43:19.980Z,99.90
2022-11-04T05:46:05.788Z,99.90
2022-11-04T05:48:51.356Z,99.90
2022-11-04T05:51:37.112Z,99.90
2022-11-04T05:54:22.799Z,99.90
2022-11-04T05:57:09.429Z,99.90
2022-11-04T05:59:54.818Z,99.90
2022-11-04T06:02:40.286Z,99.90
2022-11-04T06:05:27.088Z,99.90
2022-11-04T06:08:12.552Z,99.90
2022-11-04T06:10:57.978Z,99.90
2022-11-04T06:13:43.491Z,99.90
2022-11-04T06:16:29.065Z,99.90
2022-11-04T06:19:16.226Z,99.90
2022-11-04T06:22:01.672Z,99.90
2022-11-04T06:24:46.988Z,99.90
2022-11-04T06:27:32.635Z,99.90
2022-11-04T06:30:17.898Z,99.90
2022-11-04T06:33:03.566Z,99.90
2022-11-04T06:35:49.260Z,99.90
2022-11-04T06:38:37.456Z,99.90
2022-11-04T06:41:22.830Z,99.90
2022-11-04T06:44:08.641Z,99.90
2022-11-04T06:46:54.213Z,99.90
2022-11-04T06:49:39.990Z,99.90
2022-11-04T06:52:25.898Z,99.90
2022-11-04T06:55:11.621Z,99.90
2022-11-04T06:57:57.180Z,99.90
2022-11-04T07:00:42.589Z,99.90
2022-11-04T07:03:28.065Z,99.90
2022-11-04T07:06:13.461Z,99.90
2022-11-04T07:09:01.097Z,99.90
2022-11-04T07:11:46.638Z,99.90
2022-11-04T07:14:31.774Z,99.90
2022-11-04T07:17:17.623Z,99.90
2022-11-04T07:20:03.395Z,99.90
2022-11-04T07:22:48.828Z,99.90
2022-11-04T07:25:34.372Z,99.90
2022-11-04T07:28:20.418Z,99.90
2022-11-04T07:31:07.169Z,99.90
2022-11-04T07:33:54.035Z,99.90
2022-11-04T07:36:39.778Z,99.90
2022-11-04T07:39:25.213Z,99.90
2022-11-04T07:42:11.326Z,99.90
2022-11-04T07:44:56.830Z,99.90
2022-11-04T07:47:42.352Z,99.90
2022-11-04T07:50:28.124Z,99.90
2022-11-04T07:53:13.772Z,99.90
2022-11-04T07:56:03.406Z,99.90
2022-11-04T07:58:48.965Z,99.90
2022-11-04T08:01:34.777Z,99.90
2022-11-04T08:04:20.074Z,99.90
2022-11-04T08:07:08.604Z,99.90
2022-11-04T08:09:54.244Z,99.90
2022-11-04T08:12:39.660Z,99.90
2022-11-04T08:15:24.940Z,99.90
2022-11-04T08:18:10.611Z,99.90
2022-11-04T08:20:55.783Z,99.90
2022-11-04T08:23:41.635Z,99.90
2022-11-04T08:26:26.918Z,99.90
2022-11-04T08:29:13.095Z,99.90
2022-11-04T08:31:58.999Z,99.90
2022-11-04T08:34:44.364Z,99.90
2022-11-04T08:37:29.748Z,99.90
2022-11-04T08:40:15.160Z,99.90
2022-11-04T08:43:00.787Z,95.40
2022-11-04T08:45:46.831Z,99.90
2022-11-04T08:48:33.793Z,99.90
2022-11-04T08:51:22.130Z,90.60
2022-11-04T08:54:08.251Z,85.50
2022-11-04T08:56:54.335Z,83.20
2022-11-04T08:59:39.573Z,87.70
2022-11-04T09:02:25.227Z,92.40
2022-11-04T09:05:10.494Z,91.40
2022-11-04T09:07:56.184Z,83.70
2022-11-04T09:10:46.232Z,88.30
2022-11-04T09:13:35.442Z,83.50
2022-11-04T09:16:24.598Z,86.30
2022-11-04T09:19:10.227Z,77.50
2022-11-04T09:21:55.767Z,79.70
2022-11-04T09:24:41.349Z,78.50
2022-11-04T09:27:26.644Z,80.10
2022-11-04T09:30:12.650Z,75.50
2022-11-04T09:32:58.744Z,77.50
2022-11-04T09:35:44.329Z,68.00
2022-11-04T09:38:30.161Z,73.70
2022-11-04T09:41:42.475Z,72.80
2022-11-04T09:45:19.526Z,69.80
2022-11-04T09:48:00.393Z,71.70
2022-11-04T09:50:50.619Z,68.90
2022-11-04T09:53:44.774Z,70.60
2022-11-04T09:56:35.834Z,69.20
2022-11-04T09:59:27.182Z,68.20
2022-11-04T10:02:27.656Z,65.80
2022-11-04T10:05:28.679Z,59.30
2022-11-04T10:08:45.246Z,63.70
2022-11-04T10:11:42.900Z,57.20
2022-11-04T10:14:35.453Z,60.60
2022-11-04T10:17:51.013Z,63.40
2022-11-04T10:20:50.685Z,61.20
2022-11-04T10:23:56.888Z,61.90
2022-11-04T10:26:49.971Z,63.10
2022-11-04T10:29:45.655Z,65.70
2022-11-04T10:32:47.262Z,72.30
2022-11-04T10:35:49.631Z,67.50
2022-11-04T10:38:51.185Z,61.90
2022-11-04T10:41:41.260Z,63.20
2022-11-04T10:44:29.789Z,67.60
2022-11-04T10:48:03.443Z,61.70
2022-11-04T10:50:56.997Z,63.80
2022-11-04T10:53:42.911Z,65.70
2022-11-04T10:56:55.442Z,67.00
2022-11-04T10:59:57.156Z,63.80
2022-11-04T11:02:49.374Z,65.80
2022-11-04T11:05:34.902Z,63.50
2022-11-04T11:08:34.039Z,61.60
2022-11-04T11:11:37.422Z,60.40
2022-11-04T11:14:29.055Z,59.30
2022-11-04T11:17:24.892Z,60.40
2022-11-04T11:20:22.160Z,60.20
2022-11-04T11:23:38.307Z,59.90
2022-11-04T11:26:32.229Z,56.20
2022-11-04T11:29:42.569Z,55.60
2022-11-04T11:32:36.051Z,53.90
2022-11-04T11:35:26.695Z,56.50
2022-11-04T11:38:27.633Z,56.90
2022-11-04T11:41:24.791Z,54.30
2022-11-04T11:44:26.092Z,58.10
2022-11-04T11:47:38.020Z,58.10
2022-11-04T11:50:37.061Z,59.30
2022-11-04T11:53:24.368Z,56.50
2022-11-04T11:57:06.820Z,56.30
2022-11-04T12:02:55.503Z,55.10
2022-11-04T12:09:18.379Z,56.90
2022-11-04T12:12:14.159Z,55.60
2022-11-04T12:15:14.129Z,56.00
2022-11-04T12:18:02.130Z,61.40
2022-11-04T12:21:04.739Z,59.50
2022-11-04T12:24:06.001Z,58.30
2022-11-04T12:27:09.153Z,59.50
2022-11-04T12:30:10.724Z,60.60
2022-11-04T12:33:23.968Z,62.20
2022-11-04T12:36:32.874Z,63.20
2022-11-04T12:39:36.726Z,61.90
2022-11-04T12:42:38.889Z,60.80
2022-11-04T12:45:48.805Z,59.40
2022-11-04T12:49:05.984Z,64.10
2022-11-04T12:52:03.983Z,63.50
2022-11-04T12:55:18.421Z,64.40
2022-11-04T12:58:23.696Z,64.50
2022-11-04T13:01:15.862Z,62.70
2022-11-04T13:04:12.969Z,61.70
2022-11-04T13:07:38.755Z,59.40
2022-11-04T13:10:35.399Z,63.10
2022-11-04T13:13:31.743Z,61.70
2022-11-04T13:16:17.787Z,60.20
2022-11-04T13:19:05.182Z,61.10
2022-11-04T13:21:51.284Z,62.90
2022-11-04T13:24:40.373Z,65.10
2022-11-04T13:27:33.209Z,64.10
2022-11-04T13:30:25.847Z,63.90
2022-11-04T13:33:34.724Z,65.20
2022-11-04T13:36:23.690Z,63.90
2022-11-04T13:39:23.532Z,64.90
2022-11-04T13:42:20.540Z,64.70
2022-11-04T13:45:12.169Z,65.70
2022-11-04T13:47:58.930Z,68.50
2022-11-04T13:50:44.679Z,68.40
2022-11-04T13:53:46.759Z,70.70
2022-11-04T13:56:38.777Z,71.00
2022-11-04T13:59:29.530Z,73.40
2022-11-04T14:02:15.008Z,78.10
2022-11-04T14:05:34.720Z,80.60
2022-11-04T14:08:20.285Z,81.90
2022-11-04T14:11:10.695Z,83.20
2022-11-04T14:14:17.298Z,84.10
2022-11-04T14:17:07.111Z,88.10
2022-11-04T14:19:56.014Z,94.10
2022-11-04T14:22:44.846Z,99.90
2022-11-04T14:25:34.951Z,99.90
2022-11-04T14:28:28.678Z,99.90
2022-11-04T14:31:33.943Z,99.90
2022-11-04T14:34:42.839Z,99.90
2022-11-04T14:37:33.532Z,99.90
2022-11-04T14:40:52.279Z,99.90
2022-11-04T14:43:43.002Z,99.90
2022-11-04T14:46:35.318Z,99.90
2022-11-04T14:49:38.409Z,99.90
2022-11-04T14:52:26.379Z,99.90
2022-11-04T14:55:11.666Z,99.90
2022-11-04T14:58:24.136Z,99.90
2022-11-04T15:01:15.365Z,99.90
2022-11-04T15:04:15.426Z,99.90
2022-11-04T15:07:02.809Z,99.90
2022-11-04T15:09:50.138Z,99.90
2022-11-04T15:12:54.511Z,99.90
2022-11-04T15:15:48.750Z,99.90
2022-11-04T15:18:34.285Z,99.90
2022-11-04T15:21:19.672Z,99.90
2022-11-04T15:24:05.788Z,99.90
2022-11-04T15:26:53.282Z,99.90
2022-11-04T15:29:38.881Z,99.90
2022-11-04T15:32:24.970Z,99.90
2022-11-04T15:35:13.525Z,99.90
2022-11-04T15:38:01.641Z,99.90
2022-11-04T15:40:48.107Z,99.90
2022-11-04T15:43:33.431Z,99.90
2022-11-04T15:46:20.337Z,99.90
2022-11-04T15:49:07.357Z,99.90
2022-11-04T15:51:58.586Z,99.90
2022-11-04T15:54:47.857Z,99.90
2022-11-04T15:57:38.071Z,99.90
2022-11-04T16:00:25.861Z,99.90
2022-11-04T16:03:19.924Z,99.90
2022-11-04T16:06:08.217Z,99.90
2022-11-04T16:09:11.382Z,99.90
2022-11-04T16:12:04.779Z,99.90
2022-11-04T16:14:52.299Z,99.90
2022-11-04T16:17:44.758Z,99.90
2022-11-04T16:20:31.779Z,99.90
2022-11-04T16:23:23.317Z,99.90
2022-11-04T16:26:08.975Z,99.90
2022-11-04T16:45:02.772Z,99.90
2022-11-04T16:47:48.488Z,99.90
2022-11-04T16:50:34.273Z,99.90
2022-11-04T16:53:19.644Z,99.90
2022-11-04T16:56:07.088Z,99.90
2022-11-04T16:58:53.151Z,99.90
2022-11-04T17:01:42.522Z,99.90
2022-11-04T17:04:27.798Z,99.90
2022-11-04T17:07:13.572Z,99.90
2022-11-04T17:09:59.122Z,99.90
2022-11-04T17:12:45.411Z,99.90
2022-11-04T17:15:30.752Z,99.90
2022-11-04T17:18:17.880Z,99.90
2022-11-04T17:21:07.536Z,99.90
2022-11-04T17:23:53.122Z,99.90
2022-11-04T17:26:38.613Z,99.90
2022-11-04T17:29:24.123Z,99.90
2022-11-04T17:32:10.199Z,99.90
2022-11-04T17:34:55.637Z,99.90
2022-11-04T17:37:41.676Z,99.90
2022-11-04T17:40:27.311Z,99.90
2022-11-04T17:43:31.359Z,99.90
2022-11-04T17:46:35.774Z,99.90
2022-11-04T17:49:23.704Z,99.90
2022-11-04T17:52:09.127Z,99.90
2022-11-04T17:54:55.279Z,99.90
2022-11-04T17:57:41.516Z,99.90
2022-11-04T18:00:29.769Z,99.90
2022-11-04T18:03:15.147Z,99.90
2022-11-04T18:06:00.705Z,99.90
2022-11-04T18:08:46.581Z,99.90
2022-11-04T18:11:51.097Z,99.90
2022-11-04T18:14:36.310Z,99.90
2022-11-04T18:17:28.586Z,99.90
2022-11-04T18:20:15.638Z,99.90
2022-11-04T18:23:01.817Z,99.90
2022-11-04T18:25:50.711Z,99.90
2022-11-04T18:28:40.450Z,99.90
2022-11-04T18:31:31.250Z,99.90
2022-11-04T18:34:19.256Z,99.90
2022-11-04T18:37:04.483Z,99.90
2022-11-04T18:39:50.108Z,99.90
2022-11-04T18:42:36.173Z,99.90
2022-11-04T18:45:21.438Z,99.90
2022-11-04T18:48:07.384Z,99.90
2022-11-04T18:50:53.008Z,99.90
2022-11-04T18:53:38.500Z,99.90
2022-11-04T18:56:24.186Z,99.90
2022-11-04T18:59:12.976Z,99.90
2022-11-04T19:01:58.382Z,99.90
2022-11-04T19:04:44.324Z,99.90
2022-11-04T19:07:29.642Z,99.90
2022-11-04T19:10:14.839Z,99.90
2022-11-04T19:13:18.628Z,99.90
2022-11-04T19:16:06.145Z,99.90
2022-11-04T19:18:51.636Z,99.90
2022-11-04T19:21:36.889Z,99.90
2022-11-04T19:24:22.437Z,99.90
2022-11-04T19:27:07.741Z,99.90
2022-11-04T19:29:53.297Z,99.90
2022-11-04T19:32:38.609Z,99.90
2022-11-04T19:35:24.326Z,99.90
2022-11-04T19:38:09.810Z,99.90
2022-11-04T19:40:55.643Z,99.90
2022-11-04T19:43:40.963Z,99.90
2022-11-04T19:46:26.499Z,99.90
2022-11-04T19:49:12.677Z,99.90
2022-11-04T19:51:58.793Z,99.90
2022-11-04T19:54:44.760Z,99.90
2022-11-04T19:57:30.515Z,99.90
2022-11-04T20:00:16.275Z,99.90
2022-11-04T20:03:01.984Z,99.90
2022-11-04T20:05:47.445Z,99.90
2022-11-04T20:08:35.297Z,99.90
2022-11-04T20:11:21.090Z,99.90
2022-11-04T20:14:08.202Z,99.90
2022-11-04T20:16:53.740Z,99.90
2022-11-04T20:19:38.934Z,99.90
2022-11-04T20:22:24.605Z,99.90
2022-11-04T20:25:10.324Z,99.90
2022-11-04T20:27:55.739Z,99.90
2022-11-04T20:30:42.026Z,99.90
2022-11-04T20:33:27.556Z,99.90
2022-11-04T20:36:14.813Z,99.90
2022-11-04T20:39:03.242Z,99.90
2022-11-04T20:41:48.467Z,99.90
2022-11-04T20:44:33.893Z,99.90
2022-11-04T20:47:19.588Z,99.90
2022-11-04T20:50:05.587Z,99.90
2022-11-04T20:52:51.847Z,99.90
2022-11-04T20:55:39.913Z,99.90
2022-11-04T20:58:25.144Z,99.90
2022-11-04T21:01:13.928Z,99.90
2022-11-04T21:04:02.992Z,99.90
2022-11-04T21:06:50.028Z,99.90
2022-11-04T21:09:35.537Z,99.90
2022-11-04T21:12:21.164Z,99.90
2022-11-04T21:15:27.028Z,99.90
2022-11-04T21:18:13.157Z,99.90
2022-11-04T21:20:58.875Z,99.90
2022-11-04T21:23:45.981Z,99.90
2022-11-04T21:26:34.213Z,99.90
2022-11-04T21:29:21.303Z,99.90
2022-11-04T21:32:06.710Z,99.90
2022-11-04T21:34:51.965Z,99.90
2022-11-04T21:37:37.582Z,99.90
2022-11-04T21:40:23.111Z,99.90
2022-11-04T21:43:09.951Z,99.90
2022-11-04T21:46:06.947Z,99.90
2022-11-04T21:48:52.406Z,99.90
2022-11-04T21:51:38.140Z,99.90
2022-11-04T21:54:23.649Z,99.90
2022-11-04T21:57:09.224Z,99.90
2022-11-04T21:59:54.433Z,99.90
2022-11-04T22:02:44.366Z,99.90
2022-11-04T22:05:29.801Z,99.90
2022-11-04T22:08:18.212Z,99.90
2022-11-04T22:11:12.563Z,99.90
2022-11-04T22:14:00.298Z,99.90
2022-11-04T22:16:45.661Z,99.90
2022-11-04T22:19:31.382Z,99.90
2022-11-04T22:22:16.574Z,99.90
2022-11-04T22:25:04.759Z,99.90
2022-11-04T22:27:50.056Z,99.90
2022-11-04T22:30:37.059Z,99.90
2022-11-04T22:33:26.195Z,99.90
2022-11-04T22:36:14.387Z,99.90
2022-11-04T22:39:00.560Z,99.90
2022-11-04T22:41:46.554Z,99.90
2022-11-04T22:44:31.985Z,99.90
2022-11-04T22:47:17.599Z,99.90
2022-11-04T22:50:03.452Z,99.90
2022-11-04T22:52:49.434Z,99.90
2022-11-04T22:55:36.669Z,99.90
2022-11-04T22:58:22.117Z,99.90
2022-11-04T23:01:11.737Z,99.90
2022-11-04T23:03:57.602Z,99.90
2022-11-04T23:06:43.131Z,99.90
2022-11-04T23:09:28.529Z,99.90
2022-11-04T23:12:32.533Z,99.90
2022-11-04T23:15:36.250Z,99.90
2022-11-04T23:18:40.137Z,99.90
2022-11-04T23:21:43.925Z,99.90
2022-11-04T23:24:47.824Z,99.90
2022-11-04T23:27:52.724Z,99.90
2022-11-04T23:30:44.767Z,99.90
2022-11-04T23:33:48.921Z,99.90
2022-11-04T23:36:52.768Z,99.90
2022-11-04T23:39:39.084Z,99.90
2022-11-04T23:42:24.358Z,99.90
2022-11-04T23:45:28.884Z,99.90
2022-11-04T23:48:32.667Z,99.90
2022-11-04T23:51:36.472Z,99.90
2022-11-04T23:54:40.026Z,99.90
2022-11-04T23:57:44.313Z,99.90
